sensor_id;sensor_type;location;lat;lon;timestamp;P1;durP1;ratioP1;P2;durP2;ratioP2
9424;SDS011;17139;52.140;11.636;2023-06-14T00:00:30;1.60;;;1.60;;
9424;SDS011;17139;52.140;11.636;2023-06-14T00:02:59;1.40;;;1.40;;
9424;SDS011;17139;52.140;11.636;2023-06-14T00:05:27;1.23;;;1.23;;
9424;SDS011;17139;52.140;11.636;2023-06-14T00:07:54;1.10;;;1.05;;
9424;SDS011;17139;52.140;11.636;2023-06-14T00:10:23;2.78;;;2.53;;
9424;SDS011;17139;52.140;11.636;2023-06-14T00:12:50;1.38;;;1.38;;
9424;SDS011;17139;52.140;11.636;2023-06-14T00:15:17;1.45;;;1.42;;
9424;SDS011;17139;52.140;11.636;2023-06-14T00:17:44;2.90;;;1.50;;
9424;SDS011;17139;52.140;11.636;2023-06-14T00:20:12;1.05;;;1.05;;
9424;SDS011;17139;52.140;11.636;2023-06-14T00:22:39;1.65;;;1.55;;
9424;SDS011;17139;52.140;11.636;2023-06-14T00:25:06;1.17;;;1.17;;
9424;SDS011;17139;52.140;11.636;2023-06-14T00:27:35;1.45;;;1.45;;
9424;SDS011;17139;52.140;11.636;2023-06-14T00:30:02;1.23;;;1.23;;
9424;SDS011;17139;52.140;11.636;2023-06-14T00:32:30;1.57;;;1.50;;
9424;SDS011;17139;52.140;11.636;2023-06-14T00:34:57;2.88;;;1.35;;
9424;SDS011;17139;52.140;11.636;2023-06-14T00:37:24;1.50;;;1.40;;
9424;SDS011;17139;52.140;11.636;2023-06-14T00:39:51;1.20;;;1.20;;
9424;SDS011;17139;52.140;11.636;2023-06-14T00:42:24;1.85;;;1.38;;
9424;SDS011;17139;52.140;11.636;2023-06-14T00:44:52;1.30;;;1.30;;
9424;SDS011;17139;52.140;11.636;2023-06-14T00:47:20;3.25;;;1.10;;
9424;SDS011;17139;52.140;11.636;2023-06-14T00:49:47;1.52;;;1.42;;
9424;SDS011;17139;52.140;11.636;2023-06-14T00:52:16;1.50;;;1.40;;
9424;SDS011;17139;52.140;11.636;2023-06-14T00:54:44;1.50;;;1.50;;
9424;SDS011;17139;52.140;11.636;2023-06-14T00:57:11;3.38;;;1.42;;
9424;SDS011;17139;52.140;11.636;2023-06-14T00:59:41;1.15;;;1.15;;
9424;SDS011;17139;52.140;11.636;2023-06-14T01:02:11;1.33;;;1.33;;
9424;SDS011;17139;52.140;11.636;2023-06-14T01:04:40;1.40;;;1.40;;
9424;SDS011;17139;52.140;11.636;2023-06-14T01:07:11;1.55;;;1.55;;
9424;SDS011;17139;52.140;11.636;2023-06-14T01:09:47;2.53;;;1.38;;
9424;SDS011;17139;52.140;11.636;2023-06-14T01:12:34;1.60;;;1.60;;
9424;SDS011;17139;52.140;11.636;2023-06-14T01:15:06;1.20;;;1.20;;
9424;SDS011;17139;52.140;11.636;2023-06-14T01:17:35;2.63;;;1.38;;
9424;SDS011;17139;52.140;11.636;2023-06-14T01:20:09;1.38;;;1.38;;
9424;SDS011;17139;52.140;11.636;2023-06-14T01:22:47;1.10;;;1.10;;
9424;SDS011;17139;52.140;11.636;2023-06-14T01:25:17;1.67;;;1.58;;
9424;SDS011;17139;52.140;11.636;2023-06-14T01:27:46;1.20;;;1.20;;
9424;SDS011;17139;52.140;11.636;2023-06-14T01:30:14;1.48;;;1.40;;
9424;SDS011;17139;52.140;11.636;2023-06-14T01:32:42;2.45;;;1.63;;
9424;SDS011;17139;52.140;11.636;2023-06-14T01:35:10;1.50;;;1.40;;
9424;SDS011;17139;52.140;11.636;2023-06-14T01:37:38;1.10;;;1.10;;
9424;SDS011;17139;52.140;11.636;2023-06-14T01:40:09;1.52;;;1.52;;
9424;SDS011;17139;52.140;11.636;2023-06-14T01:42:38;1.77;;;1.60;;
9424;SDS011;17139;52.140;11.636;2023-06-14T01:45:06;1.35;;;1.35;;
9424;SDS011;17139;52.140;11.636;2023-06-14T01:47:34;1.85;;;1.52;;
9424;SDS011;17139;52.140;11.636;2023-06-14T01:50:02;1.42;;;1.42;;
9424;SDS011;17139;52.140;11.636;2023-06-14T01:52:30;1.35;;;1.35;;
9424;SDS011;17139;52.140;11.636;2023-06-14T01:54:57;1.52;;;1.52;;
9424;SDS011;17139;52.140;11.636;2023-06-14T01:57:30;1.13;;;1.13;;
9424;SDS011;17139;52.140;11.636;2023-06-14T01:59:57;1.88;;;1.60;;
9424;SDS011;17139;52.140;11.636;2023-06-14T02:02:24;1.80;;;1.70;;
9424;SDS011;17139;52.140;11.636;2023-06-14T02:04:51;5.97;;;1.42;;
9424;SDS011;17139;52.140;11.636;2023-06-14T02:07:22;3.92;;;1.35;;
9424;SDS011;17139;52.140;11.636;2023-06-14T02:09:49;1.63;;;1.52;;
9424;SDS011;17139;52.140;11.636;2023-06-14T02:12:16;1.42;;;1.42;;
9424;SDS011;17139;52.140;11.636;2023-06-14T02:14:45;1.45;;;1.40;;
9424;SDS011;17139;52.140;11.636;2023-06-14T02:17:12;1.73;;;1.67;;
9424;SDS011;17139;52.140;11.636;2023-06-14T02:19:39;1.67;;;1.58;;
9424;SDS011;17139;52.140;11.636;2023-06-14T02:22:06;4.78;;;1.58;;
9424;SDS011;17139;52.140;11.636;2023-06-14T02:24:33;2.50;;;1.67;;
9424;SDS011;17139;52.140;11.636;2023-06-14T02:27:01;1.50;;;1.40;;
9424;SDS011;17139;52.140;11.636;2023-06-14T02:29:28;1.70;;;1.60;;
9424;SDS011;17139;52.140;11.636;2023-06-14T02:31:57;3.08;;;1.70;;
9424;SDS011;17139;52.140;11.636;2023-06-14T02:34:24;2.38;;;1.92;;
9424;SDS011;17139;52.140;11.636;2023-06-14T02:36:51;2.03;;;1.92;;
9424;SDS011;17139;52.140;11.636;2023-06-14T02:39:18;1.90;;;1.80;;
9424;SDS011;17139;52.140;11.636;2023-06-14T02:41:48;1.67;;;1.58;;
9424;SDS011;17139;52.140;11.636;2023-06-14T02:44:17;1.80;;;1.70;;
9424;SDS011;17139;52.140;11.636;2023-06-14T02:46:44;1.50;;;1.50;;
9424;SDS011;17139;52.140;11.636;2023-06-14T02:49:13;1.67;;;1.57;;
9424;SDS011;17139;52.140;11.636;2023-06-14T02:51:40;1.95;;;1.88;;
9424;SDS011;17139;52.140;11.636;2023-06-14T02:54:07;1.85;;;1.75;;
9424;SDS011;17139;52.140;11.636;2023-06-14T02:56:34;2.15;;;1.70;;
9424;SDS011;17139;52.140;11.636;2023-06-14T02:59:01;1.90;;;1.80;;
9424;SDS011;17139;52.140;11.636;2023-06-14T03:01:28;4.82;;;1.70;;
9424;SDS011;17139;52.140;11.636;2023-06-14T03:03:59;1.50;;;1.50;;
9424;SDS011;17139;52.140;11.636;2023-06-14T03:06:28;1.87;;;1.73;;
9424;SDS011;17139;52.140;11.636;2023-06-14T03:08:56;3.53;;;1.73;;
9424;SDS011;17139;52.140;11.636;2023-06-14T03:11:25;2.25;;;2.05;;
9424;SDS011;17139;52.140;11.636;2023-06-14T03:13:52;3.33;;;2.35;;
9424;SDS011;17139;52.140;11.636;2023-06-14T03:16:20;1.90;;;1.80;;
9424;SDS011;17139;52.140;11.636;2023-06-14T03:18:49;2.17;;;2.08;;
9424;SDS011;17139;52.140;11.636;2023-06-14T03:21:16;1.60;;;1.58;;
9424;SDS011;17139;52.140;11.636;2023-06-14T03:23:46;1.67;;;1.55;;
9424;SDS011;17139;52.140;11.636;2023-06-14T03:26:13;3.13;;;2.07;;
9424;SDS011;17139;52.140;11.636;2023-06-14T03:28:43;3.10;;;2.40;;
9424;SDS011;17139;52.140;11.636;2023-06-14T03:31:10;2.40;;;2.20;;
9424;SDS011;17139;52.140;11.636;2023-06-14T03:33:37;2.17;;;2.10;;
9424;SDS011;17139;52.140;11.636;2023-06-14T03:36:04;1.90;;;1.90;;
9424;SDS011;17139;52.140;11.636;2023-06-14T03:38:32;3.67;;;1.90;;
9424;SDS011;17139;52.140;11.636;2023-06-14T03:41:01;2.83;;;1.53;;
9424;SDS011;17139;52.140;11.636;2023-06-14T03:43:28;2.33;;;2.22;;
9424;SDS011;17139;52.140;11.636;2023-06-14T03:45:55;2.47;;;2.38;;
9424;SDS011;17139;52.140;11.636;2023-06-14T03:48:22;2.20;;;2.05;;
9424;SDS011;17139;52.140;11.636;2023-06-14T03:50:49;2.40;;;2.30;;
9424;SDS011;17139;52.140;11.636;2023-06-14T03:53:16;4.00;;;1.98;;
9424;SDS011;17139;52.140;11.636;2023-06-14T03:55:45;1.58;;;1.50;;
9424;SDS011;17139;52.140;11.636;2023-06-14T03:58:15;2.00;;;1.90;;
9424;SDS011;17139;52.140;11.636;2023-06-14T04:00:42;2.20;;;2.10;;
9424;SDS011;17139;52.140;11.636;2023-06-14T04:03:10;2.20;;;2.20;;
9424;SDS011;17139;52.140;11.636;2023-06-14T04:05:38;2.58;;;2.15;;
9424;SDS011;17139;52.140;11.636;2023-06-14T04:08:07;2.58;;;2.00;;
9424;SDS011;17139;52.140;11.636;2023-06-14T04:10:34;2.47;;;2.03;;
9424;SDS011;17139;52.140;11.636;2023-06-14T04:13:01;2.23;;;2.13;;
9424;SDS011;17139;52.140;11.636;2023-06-14T04:15:31;2.10;;;2.03;;
9424;SDS011;17139;52.140;11.636;2023-06-14T04:17:58;1.92;;;1.92;;
9424;SDS011;17139;52.140;11.636;2023-06-14T04:20:25;2.05;;;1.98;;
9424;SDS011;17139;52.140;11.636;2023-06-14T04:22:52;3.88;;;2.10;;
9424;SDS011;17139;52.140;11.636;2023-06-14T04:25:22;3.97;;;2.70;;
9424;SDS011;17139;52.140;11.636;2023-06-14T04:27:51;2.88;;;2.78;;
9424;SDS011;17139;52.140;11.636;2023-06-14T04:30:18;3.40;;;3.10;;
9424;SDS011;17139;52.140;11.636;2023-06-14T04:32:47;3.00;;;2.90;;
9424;SDS011;17139;52.140;11.636;2023-06-14T04:35:18;2.72;;;2.63;;
9424;SDS011;17139;52.140;11.636;2023-06-14T04:37:45;2.70;;;2.60;;
9424;SDS011;17139;52.140;11.636;2023-06-14T04:40:12;3.13;;;2.92;;
9424;SDS011;17139;52.140;11.636;2023-06-14T04:42:39;2.80;;;2.70;;
9424;SDS011;17139;52.140;11.636;2023-06-14T04:45:10;2.95;;;2.75;;
9424;SDS011;17139;52.140;11.636;2023-06-14T04:47:38;3.05;;;2.75;;
9424;SDS011;17139;52.140;11.636;2023-06-14T04:50:07;6.82;;;2.70;;
9424;SDS011;17139;52.140;11.636;2023-06-14T04:52:35;3.38;;;3.08;;
9424;SDS011;17139;52.140;11.636;2023-06-14T04:55:02;2.58;;;2.50;;
9424;SDS011;17139;52.140;11.636;2023-06-14T04:57:30;3.85;;;2.53;;
9424;SDS011;17139;52.140;11.636;2023-06-14T04:59:57;2.92;;;2.83;;
9424;SDS011;17139;52.140;11.636;2023-06-14T05:02:26;3.20;;;3.03;;
9424;SDS011;17139;52.140;11.636;2023-06-14T05:04:55;3.10;;;2.85;;
9424;SDS011;17139;52.140;11.636;2023-06-14T05:07:24;2.92;;;2.72;;
9424;SDS011;17139;52.140;11.636;2023-06-14T05:09:51;2.63;;;2.53;;
9424;SDS011;17139;52.140;11.636;2023-06-14T05:12:18;2.72;;;2.53;;
9424;SDS011;17139;52.140;11.636;2023-06-14T05:14:45;3.33;;;3.13;;
9424;SDS011;17139;52.140;11.636;2023-06-14T05:17:12;2.55;;;2.55;;
9424;SDS011;17139;52.140;11.636;2023-06-14T05:19:39;5.18;;;2.60;;
9424;SDS011;17139;52.140;11.636;2023-06-14T05:22:07;2.92;;;2.80;;
9424;SDS011;17139;52.140;11.636;2023-06-14T05:24:35;2.75;;;2.60;;
9424;SDS011;17139;52.140;11.636;2023-06-14T05:27:02;2.50;;;2.40;;
9424;SDS011;17139;52.140;11.636;2023-06-14T05:29:30;3.47;;;3.17;;
9424;SDS011;17139;52.140;11.636;2023-06-14T05:31:57;2.83;;;2.70;;
9424;SDS011;17139;52.140;11.636;2023-06-14T05:34:24;3.15;;;2.80;;
9424;SDS011;17139;52.140;11.636;2023-06-14T05:36:52;2.78;;;2.67;;
9424;SDS011;17139;52.140;11.636;2023-06-14T05:39:19;3.33;;;3.22;;
9424;SDS011;17139;52.140;11.636;2023-06-14T05:41:47;3.03;;;2.88;;
9424;SDS011;17139;52.140;11.636;2023-06-14T05:44:14;2.95;;;2.85;;
9424;SDS011;17139;52.140;11.636;2023-06-14T05:46:41;3.05;;;2.95;;
9424;SDS011;17139;52.140;11.636;2023-06-14T05:49:08;5.35;;;2.65;;
9424;SDS011;17139;52.140;11.636;2023-06-14T05:51:37;2.85;;;2.75;;
9424;SDS011;17139;52.140;11.636;2023-06-14T05:54:04;3.00;;;2.70;;
9424;SDS011;17139;52.140;11.636;2023-06-14T05:56:30;2.85;;;2.75;;
9424;SDS011;17139;52.140;11.636;2023-06-14T05:58:59;2.80;;;2.70;;
9424;SDS011;17139;52.140;11.636;2023-06-14T06:01:26;3.10;;;2.92;;
9424;SDS011;17139;52.140;11.636;2023-06-14T06:03:53;3.30;;;3.10;;
9424;SDS011;17139;52.140;11.636;2023-06-14T06:06:20;2.67;;;2.58;;
9424;SDS011;17139;52.140;11.636;2023-06-14T06:08:47;2.70;;;2.60;;
9424;SDS011;17139;52.140;11.636;2023-06-14T06:11:14;3.13;;;2.83;;
9424;SDS011;17139;52.140;11.636;2023-06-14T06:13:41;3.42;;;2.72;;
9424;SDS011;17139;52.140;11.636;2023-06-14T06:16:09;3.08;;;2.78;;
9424;SDS011;17139;52.140;11.636;2023-06-14T06:18:36;2.78;;;2.67;;
9424;SDS011;17139;52.140;11.636;2023-06-14T06:21:04;3.13;;;2.90;;
9424;SDS011;17139;52.140;11.636;2023-06-14T06:23:32;1.75;;;1.75;;
9424;SDS011;17139;52.140;11.636;2023-06-14T06:25:59;2.72;;;2.63;;
9424;SDS011;17139;52.140;11.636;2023-06-14T06:28:25;2.65;;;2.55;;
9424;SDS011;17139;52.140;11.636;2023-06-14T06:30:53;2.75;;;2.65;;
9424;SDS011;17139;52.140;11.636;2023-06-14T06:33:21;2.88;;;2.67;;
9424;SDS011;17139;52.140;11.636;2023-06-14T06:35:48;2.65;;;2.55;;
9424;SDS011;17139;52.140;11.636;2023-06-14T06:38:15;3.72;;;3.55;;
9424;SDS011;17139;52.140;11.636;2023-06-14T06:40:43;2.67;;;2.58;;
9424;SDS011;17139;52.140;11.636;2023-06-14T06:43:10;2.75;;;2.65;;
9424;SDS011;17139;52.140;11.636;2023-06-14T06:45:38;3.05;;;2.85;;
9424;SDS011;17139;52.140;11.636;2023-06-14T06:48:05;2.63;;;2.45;;
9424;SDS011;17139;52.140;11.636;2023-06-14T06:50:33;2.20;;;2.10;;
9424;SDS011;17139;52.140;11.636;2023-06-14T06:53:00;2.47;;;2.35;;
9424;SDS011;17139;52.140;11.636;2023-06-14T06:55:30;2.50;;;2.30;;
9424;SDS011;17139;52.140;11.636;2023-06-14T06:57:57;2.22;;;2.13;;
9424;SDS011;17139;52.140;11.636;2023-06-14T07:00:25;2.53;;;2.42;;
9424;SDS011;17139;52.140;11.636;2023-06-14T07:02:52;2.35;;;2.13;;
9424;SDS011;17139;52.140;11.636;2023-06-14T07:05:20;3.33;;;2.42;;
9424;SDS011;17139;52.140;11.636;2023-06-14T07:07:48;1.95;;;1.95;;
9424;SDS011;17139;52.140;11.636;2023-06-14T07:10:15;2.35;;;2.25;;
9424;SDS011;17139;52.140;11.636;2023-06-14T07:12:43;2.20;;;2.10;;
9424;SDS011;17139;52.140;11.636;2023-06-14T07:15:11;2.22;;;2.00;;
9424;SDS011;17139;52.140;11.636;2023-06-14T07:17:38;2.78;;;2.58;;
9424;SDS011;17139;52.140;11.636;2023-06-14T07:20:06;3.65;;;1.90;;
9424;SDS011;17139;52.140;11.636;2023-06-14T07:22:38;3.45;;;2.08;;
9424;SDS011;17139;52.140;11.636;2023-06-14T07:25:09;2.08;;;1.98;;
9424;SDS011;17139;52.140;11.636;2023-06-14T07:27:39;2.40;;;2.30;;
9424;SDS011;17139;52.140;11.636;2023-06-14T07:30:06;2.15;;;2.05;;
9424;SDS011;17139;52.140;11.636;2023-06-14T07:32:34;2.10;;;2.00;;
9424;SDS011;17139;52.140;11.636;2023-06-14T07:35:02;2.20;;;2.03;;
9424;SDS011;17139;52.140;11.636;2023-06-14T07:37:29;2.25;;;2.15;;
9424;SDS011;17139;52.140;11.636;2023-06-14T07:39:56;3.20;;;1.90;;
9424;SDS011;17139;52.140;11.636;2023-06-14T07:42:25;2.92;;;1.95;;
9424;SDS011;17139;52.140;11.636;2023-06-14T07:44:52;1.40;;;1.40;;
9424;SDS011;17139;52.140;11.636;2023-06-14T07:47:19;2.10;;;2.00;;
9424;SDS011;17139;52.140;11.636;2023-06-14T07:49:46;2.00;;;1.70;;
9424;SDS011;17139;52.140;11.636;2023-06-14T07:52:13;2.08;;;1.98;;
9424;SDS011;17139;52.140;11.636;2023-06-14T07:54:40;2.00;;;1.90;;
9424;SDS011;17139;52.140;11.636;2023-06-14T07:57:07;1.90;;;1.80;;
9424;SDS011;17139;52.140;11.636;2023-06-14T07:59:35;1.70;;;1.70;;
9424;SDS011;17139;52.140;11.636;2023-06-14T08:02:02;2.15;;;1.92;;
9424;SDS011;17139;52.140;11.636;2023-06-14T08:04:30;2.95;;;2.10;;
9424;SDS011;17139;52.140;11.636;2023-06-14T08:06:57;1.83;;;1.73;;
9424;SDS011;17139;52.140;11.636;2023-06-14T08:09:25;1.90;;;1.90;;
9424;SDS011;17139;52.140;11.636;2023-06-14T08:11:53;1.85;;;1.85;;
9424;SDS011;17139;52.140;11.636;2023-06-14T08:14:20;2.25;;;2.10;;
9424;SDS011;17139;52.140;11.636;2023-06-14T08:16:49;1.75;;;1.67;;
9424;SDS011;17139;52.140;11.636;2023-06-14T08:19:16;1.77;;;1.77;;
9424;SDS011;17139;52.140;11.636;2023-06-14T08:21:45;1.58;;;1.33;;
9424;SDS011;17139;52.140;11.636;2023-06-14T08:24:12;1.90;;;1.90;;
9424;SDS011;17139;52.140;11.636;2023-06-14T08:26:39;1.70;;;1.60;;
9424;SDS011;17139;52.140;11.636;2023-06-14T08:29:06;2.00;;;1.90;;
9424;SDS011;17139;52.140;11.636;2023-06-14T08:31:33;2.10;;;2.00;;
9424;SDS011;17139;52.140;11.636;2023-06-14T08:34:02;2.88;;;1.70;;
9424;SDS011;17139;52.140;11.636;2023-06-14T08:36:29;1.40;;;1.40;;
9424;SDS011;17139;52.140;11.636;2023-06-14T08:38:56;2.20;;;2.10;;
9424;SDS011;17139;52.140;11.636;2023-06-14T08:41:23;1.77;;;1.77;;
9424;SDS011;17139;52.140;11.636;2023-06-14T08:43:50;3.40;;;1.95;;
9424;SDS011;17139;52.140;11.636;2023-06-14T08:46:18;2.60;;;1.75;;
9424;SDS011;17139;52.140;11.636;2023-06-14T08:48:46;2.00;;;2.00;;
9424;SDS011;17139;52.140;11.636;2023-06-14T08:51:16;1.92;;;1.83;;
9424;SDS011;17139;52.140;11.636;2023-06-14T08:53:47;1.88;;;1.88;;
9424;SDS011;17139;52.140;11.636;2023-06-14T08:56:18;2.05;;;1.85;;
9424;SDS011;17139;52.140;11.636;2023-06-14T08:58:47;2.05;;;1.75;;
9424;SDS011;17139;52.140;11.636;2023-06-14T09:01:15;1.85;;;1.85;;
9424;SDS011;17139;52.140;11.636;2023-06-14T09:03:42;2.08;;;1.98;;
9424;SDS011;17139;52.140;11.636;2023-06-14T09:06:10;2.20;;;1.95;;
9424;SDS011;17139;52.140;11.636;2023-06-14T09:08:42;3.28;;;2.88;;
9424;SDS011;17139;52.140;11.636;2023-06-14T09:11:10;2.97;;;2.08;;
9424;SDS011;17139;52.140;11.636;2023-06-14T09:13:38;2.22;;;2.13;;
9424;SDS011;17139;52.140;11.636;2023-06-14T09:16:05;2.08;;;2.03;;
9424;SDS011;17139;52.140;11.636;2023-06-14T09:18:34;2.38;;;2.28;;
9424;SDS011;17139;52.140;11.636;2023-06-14T09:21:01;2.00;;;1.95;;
9424;SDS011;17139;52.140;11.636;2023-06-14T09:23:29;2.03;;;1.92;;
9424;SDS011;17139;52.140;11.636;2023-06-14T09:26:07;2.10;;;2.00;;
9424;SDS011;17139;52.140;11.636;2023-06-14T09:28:35;1.80;;;1.73;;
9424;SDS011;17139;52.140;11.636;2023-06-14T09:31:02;2.30;;;2.20;;
9424;SDS011;17139;52.140;11.636;2023-06-14T09:33:30;2.45;;;2.30;;
9424;SDS011;17139;52.140;11.636;2023-06-14T09:35:58;2.15;;;2.05;;
9424;SDS011;17139;52.140;11.636;2023-06-14T09:38:25;2.45;;;2.35;;
9424;SDS011;17139;52.140;11.636;2023-06-14T09:40:52;2.35;;;2.25;;
9424;SDS011;17139;52.140;11.636;2023-06-14T09:43:26;3.38;;;2.28;;
9424;SDS011;17139;52.140;11.636;2023-06-14T09:45:54;2.38;;;2.28;;
9424;SDS011;17139;52.140;11.636;2023-06-14T09:48:21;2.00;;;1.90;;
9424;SDS011;17139;52.140;11.636;2023-06-14T09:50:49;3.75;;;2.20;;
9424;SDS011;17139;52.140;11.636;2023-06-14T09:53:17;3.67;;;2.92;;
9424;SDS011;17139;52.140;11.636;2023-06-14T09:55:49;3.45;;;2.55;;
9424;SDS011;17139;52.140;11.636;2023-06-14T09:58:19;1.73;;;1.63;;
9424;SDS011;17139;52.140;11.636;2023-06-14T10:00:50;2.60;;;2.40;;
9424;SDS011;17139;52.140;11.636;2023-06-14T10:03:21;2.45;;;2.35;;
9424;SDS011;17139;52.140;11.636;2023-06-14T10:05:51;3.75;;;2.50;;
9424;SDS011;17139;52.140;11.636;2023-06-14T10:08:22;3.20;;;2.70;;
9424;SDS011;17139;52.140;11.636;2023-06-14T10:10:52;2.78;;;1.73;;
9424;SDS011;17139;52.140;11.636;2023-06-14T10:13:19;3.25;;;2.38;;
9424;SDS011;17139;52.140;11.636;2023-06-14T10:15:50;2.25;;;2.10;;
9424;SDS011;17139;52.140;11.636;2023-06-14T10:18:27;6.05;;;2.20;;
9424;SDS011;17139;52.140;11.636;2023-06-14T10:21:01;3.03;;;2.50;;
9424;SDS011;17139;52.140;11.636;2023-06-14T10:23:35;3.38;;;2.30;;
9424;SDS011;17139;52.140;11.636;2023-06-14T10:26:06;4.32;;;2.58;;
9424;SDS011;17139;52.140;11.636;2023-06-14T10:28:34;2.17;;;2.08;;
9424;SDS011;17139;52.140;11.636;2023-06-14T10:31:09;9.82;;;2.60;;
9424;SDS011;17139;52.140;11.636;2023-06-14T10:33:39;4.38;;;2.30;;
9424;SDS011;17139;52.140;11.636;2023-06-14T10:36:25;2.78;;;2.40;;
9424;SDS011;17139;52.140;11.636;2023-06-14T10:39:00;3.45;;;2.53;;
9424;SDS011;17139;52.140;11.636;2023-06-14T10:41:34;4.03;;;2.10;;
9424;SDS011;17139;52.140;11.636;2023-06-14T10:47:07;1.92;;;1.85;;
9424;SDS011;17139;52.140;11.636;2023-06-14T10:49:37;2.17;;;1.90;;
9424;SDS011;17139;52.140;11.636;2023-06-14T10:52:10;3.92;;;2.17;;
9424;SDS011;17139;52.140;11.636;2023-06-14T10:54:55;3.78;;;2.42;;
9424;SDS011;17139;52.140;11.636;2023-06-14T10:57:25;2.75;;;2.55;;
9424;SDS011;17139;52.140;11.636;2023-06-14T10:59:52;2.97;;;2.77;;
9424;SDS011;17139;52.140;11.636;2023-06-14T11:02:33;2.55;;;2.40;;
9424;SDS011;17139;52.140;11.636;2023-06-14T11:05:16;2.08;;;1.98;;
9424;SDS011;17139;52.140;11.636;2023-06-14T11:07:55;2.42;;;2.33;;
9424;SDS011;17139;52.140;11.636;2023-06-14T11:10:35;1.88;;;1.77;;
9424;SDS011;17139;52.140;11.636;2023-06-14T11:13:03;2.17;;;2.00;;
9424;SDS011;17139;52.140;11.636;2023-06-14T11:15:31;5.85;;;2.78;;
9424;SDS011;17139;52.140;11.636;2023-06-14T11:18:02;2.92;;;2.45;;
9424;SDS011;17139;52.140;11.636;2023-06-14T11:20:31;3.80;;;2.42;;
9424;SDS011;17139;52.140;11.636;2023-06-14T11:23:01;2.88;;;2.72;;
9424;SDS011;17139;52.140;11.636;2023-06-14T11:25:29;3.08;;;2.08;;
9424;SDS011;17139;52.140;11.636;2023-06-14T11:27:57;10.52;;;2.50;;
9424;SDS011;17139;52.140;11.636;2023-06-14T11:30:25;3.17;;;2.63;;
9424;SDS011;17139;52.140;11.636;2023-06-14T11:32:52;2.25;;;2.15;;
9424;SDS011;17139;52.140;11.636;2023-06-14T11:35:22;2.30;;;2.20;;
9424;SDS011;17139;52.140;11.636;2023-06-14T11:37:52;2.33;;;2.22;;
9424;SDS011;17139;52.140;11.636;2023-06-14T11:40:22;2.78;;;2.58;;
9424;SDS011;17139;52.140;11.636;2023-06-14T11:42:53;4.78;;;2.30;;
9424;SDS011;17139;52.140;11.636;2023-06-14T11:45:25;2.20;;;2.00;;
9424;SDS011;17139;52.140;11.636;2023-06-14T11:47:54;3.72;;;2.70;;
9424;SDS011;17139;52.140;11.636;2023-06-14T11:50:24;11.00;;;2.65;;
9424;SDS011;17139;52.140;11.636;2023-06-14T11:52:54;9.40;;;2.43;;
9424;SDS011;17139;52.140;11.636;2023-06-14T11:55:22;5.43;;;2.45;;
9424;SDS011;17139;52.140;11.636;2023-06-14T11:57:49;4.78;;;2.22;;
9424;SDS011;17139;52.140;11.636;2023-06-14T12:00:17;2.55;;;2.38;;
9424;SDS011;17139;52.140;11.636;2023-06-14T12:02:52;2.80;;;2.17;;
9424;SDS011;17139;52.140;11.636;2023-06-14T12:05:20;6.45;;;2.40;;
9424;SDS011;17139;52.140;11.636;2023-06-14T12:07:49;5.10;;;2.58;;
9424;SDS011;17139;52.140;11.636;2023-06-14T12:10:18;5.30;;;2.38;;
9424;SDS011;17139;52.140;11.636;2023-06-14T12:12:45;2.00;;;1.90;;
9424;SDS011;17139;52.140;11.636;2023-06-14T12:15:12;2.33;;;2.22;;
9424;SDS011;17139;52.140;11.636;2023-06-14T12:17:39;1.95;;;1.85;;
9424;SDS011;17139;52.140;11.636;2023-06-14T12:20:09;2.17;;;2.08;;
9424;SDS011;17139;52.140;11.636;2023-06-14T12:22:38;3.80;;;2.08;;
9424;SDS011;17139;52.140;11.636;2023-06-14T12:25:24;2.55;;;2.08;;
9424;SDS011;17139;52.140;11.636;2023-06-14T12:27:57;5.88;;;2.30;;
9424;SDS011;17139;52.140;11.636;2023-06-14T12:30:24;2.37;;;2.27;;
9424;SDS011;17139;52.140;11.636;2023-06-14T12:32:52;2.40;;;2.30;;
9424;SDS011;17139;52.140;11.636;2023-06-14T12:35:19;2.13;;;2.10;;
9424;SDS011;17139;52.140;11.636;2023-06-14T12:37:46;3.65;;;2.30;;
9424;SDS011;17139;52.140;11.636;2023-06-14T12:40:13;2.38;;;2.28;;
9424;SDS011;17139;52.140;11.636;2023-06-14T12:42:42;2.63;;;2.30;;
9424;SDS011;17139;52.140;11.636;2023-06-14T12:45:12;2.22;;;2.10;;
9424;SDS011;17139;52.140;11.636;2023-06-14T12:47:39;4.68;;;2.40;;
9424;SDS011;17139;52.140;11.636;2023-06-14T12:50:07;5.43;;;2.72;;
9424;SDS011;17139;52.140;11.636;2023-06-14T12:52:34;2.20;;;2.08;;
9424;SDS011;17139;52.140;11.636;2023-06-14T12:55:02;2.53;;;2.40;;
9424;SDS011;17139;52.140;11.636;2023-06-14T12:57:30;5.68;;;2.50;;
9424;SDS011;17139;52.140;11.636;2023-06-14T12:59:59;2.67;;;2.40;;
9424;SDS011;17139;52.140;11.636;2023-06-14T13:02:26;2.53;;;2.42;;
9424;SDS011;17139;52.140;11.636;2023-06-14T13:04:54;2.45;;;2.35;;
9424;SDS011;17139;52.140;11.636;2023-06-14T13:07:22;2.35;;;2.20;;
9424;SDS011;17139;52.140;11.636;2023-06-14T13:09:49;7.00;;;2.45;;
9424;SDS011;17139;52.140;11.636;2023-06-14T13:12:16;4.30;;;2.40;;
9424;SDS011;17139;52.140;11.636;2023-06-14T13:14:43;2.53;;;2.38;;
9424;SDS011;17139;52.140;11.636;2023-06-14T13:17:11;2.80;;;2.60;;
9424;SDS011;17139;52.140;11.636;2023-06-14T13:19:38;3.38;;;2.30;;
9424;SDS011;17139;52.140;11.636;2023-06-14T13:22:07;4.10;;;2.58;;
9424;SDS011;17139;52.140;11.636;2023-06-14T13:24:34;2.40;;;2.30;;
9424;SDS011;17139;52.140;11.636;2023-06-14T13:27:01;6.47;;;2.50;;
9424;SDS011;17139;52.140;11.636;2023-06-14T13:29:28;6.00;;;2.40;;
9424;SDS011;17139;52.140;11.636;2023-06-14T13:31:56;5.40;;;2.58;;
9424;SDS011;17139;52.140;11.636;2023-06-14T13:34:24;2.90;;;2.42;;
9424;SDS011;17139;52.140;11.636;2023-06-14T13:36:51;2.95;;;2.50;;
9424;SDS011;17139;52.140;11.636;2023-06-14T13:39:18;4.03;;;2.75;;
9424;SDS011;17139;52.140;11.636;2023-06-14T13:41:45;4.75;;;2.88;;
9424;SDS011;17139;52.140;11.636;2023-06-14T13:44:12;2.83;;;2.60;;
9424;SDS011;17139;52.140;11.636;2023-06-14T13:46:39;3.83;;;2.30;;
9424;SDS011;17139;52.140;11.636;2023-06-14T13:49:08;9.20;;;2.60;;
9424;SDS011;17139;52.140;11.636;2023-06-14T13:51:36;2.95;;;2.75;;
9424;SDS011;17139;52.140;11.636;2023-06-14T13:54:03;2.60;;;2.38;;
9424;SDS011;17139;52.140;11.636;2023-06-14T13:56:30;7.07;;;2.90;;
9424;SDS011;17139;52.140;11.636;2023-06-14T13:58:57;3.30;;;2.47;;
9424;SDS011;17139;52.140;11.636;2023-06-14T14:01:25;5.68;;;2.63;;
9424;SDS011;17139;52.140;11.636;2023-06-14T14:03:53;3.80;;;2.22;;
9424;SDS011;17139;52.140;11.636;2023-06-14T14:06:20;5.25;;;2.58;;
9424;SDS011;17139;52.140;11.636;2023-06-14T14:08:49;2.50;;;2.03;;
9424;SDS011;17139;52.140;11.636;2023-06-14T14:11:18;2.08;;;1.98;;
9424;SDS011;17139;52.140;11.636;2023-06-14T14:13:45;2.20;;;2.10;;
9424;SDS011;17139;52.140;11.636;2023-06-14T14:16:12;4.45;;;2.33;;
9424;SDS011;17139;52.140;11.636;2023-06-14T14:18:40;2.97;;;2.75;;
9424;SDS011;17139;52.140;11.636;2023-06-14T14:21:07;3.08;;;2.80;;
9424;SDS011;17139;52.140;11.636;2023-06-14T14:23:34;2.88;;;2.63;;
9424;SDS011;17139;52.140;11.636;2023-06-14T14:26:03;5.38;;;2.50;;
9424;SDS011;17139;52.140;11.636;2023-06-14T14:28:30;2.50;;;2.35;;
9424;SDS011;17139;52.140;11.636;2023-06-14T14:30:57;2.28;;;2.17;;
9424;SDS011;17139;52.140;11.636;2023-06-14T14:33:24;2.88;;;2.67;;
9424;SDS011;17139;52.140;11.636;2023-06-14T14:35:51;3.55;;;2.80;;
9424;SDS011;17139;52.140;11.636;2023-06-14T14:38:19;2.73;;;2.50;;
9424;SDS011;17139;52.140;11.636;2023-06-14T14:40:46;2.63;;;2.45;;
9424;SDS011;17139;52.140;11.636;2023-06-14T14:43:15;6.72;;;2.40;;
9424;SDS011;17139;52.140;11.636;2023-06-14T14:45:42;5.68;;;2.67;;
9424;SDS011;17139;52.140;11.636;2023-06-14T14:48:09;2.75;;;2.50;;
9424;SDS011;17139;52.140;11.636;2023-06-14T14:50:36;2.13;;;2.10;;
9424;SDS011;17139;52.140;11.636;2023-06-14T14:53:03;2.55;;;2.45;;
9424;SDS011;17139;52.140;11.636;2023-06-14T14:55:31;3.55;;;2.90;;
9424;SDS011;17139;52.140;11.636;2023-06-14T14:58:00;2.80;;;2.60;;